Aérodrome :
LOGIN :

S'inscrire | Disclaimer

   EN    FR    IT 

 










Légende :    VFR   VFR Marginal   IFR   IFR Intensif   IFR Très Intensif
Visi : 
Plafond : 
>= 8 km
>= 3000ft
5 à 8 km
1000 à 3000 ft
1500m à 5 km
500 à 1000 ft
800 à 1500m
200 à 500 ft
< 800m
< 200 ft
Symboles :   Orages  Brouillard  Fortes neiges  Fortes précipitations  Vent > 20 kt
SIGMETs :   Divers  Orages  Givrage  Turbulence  Onde Orograph.  Cendres Volcan.







- Altitude de l'aérodrome : 74 ft
- Code IATA : EIN


EHEH - Eindhoven

DERNIER METAR :
  • 222025Z AUTO 06008KT 020V090 9999 NCD 00/M05 Q1023 BLU 04012KT CAVOK

METARs EXPIRÉS :
  • 221955Z AUTO 06010KT 9999 NCD 01/M05 Q1023 BLU 04012KT CAVOK
  • 221925Z AUTO 05011KT 030V090 9999 NCD 01/M05 Q1023 BLU 04012KT CAVOK
  • 221855Z AUTO 05012KT 020V100 9999 NCD 01/M05 Q1023 BLU 04012KT CAVOK
  • 221825Z AUTO 04012KT 010V070 9999 NCD 02/M05 Q1023 BLU 04012KT CAVOK
  • 221755Z AUTO 04012KT 360V070 9999 NCD 02/M05 Q1023 BLU 04012KT CAVOK
  • 221725Z AUTO 04013KT 010V070 9999 NCD 02/M05 Q1022 BLU 06012G22KT CAVOK

TAF TAF EHEH
Valide du 22 à 18h jusqu'au 24 à 00h UTC


221754Z 2218/2324 05007KT CAVOK
PROB30
TEMPO 2305/2308 SCT005 BKN009
BECMG 2308/2321 07012G22KT
Pas de NOTAMs connus pour ce terrain.



MET'MAP, la Météo Aéronautique d'un coup d'oeil ! - Copyright ORBIFLY Décembre 2007 - Disclaimer

ORBIFLY MET'MAP TEAM :

Programmation & Développement : Alexandra Zaïnal
Conception & Développement : Baudouin d'Aumeries
Co-Programmation & Développement : Marc-Olivier Méhu
Soutien technique & logistique : Manuel Goepfert

Contact : metmap@orbifly.com




SOURCES & CREDITS :

   NOAA